Aérodrome :
LOGIN :

S'inscrire | Disclaimer

   EN    FR    IT 

 










Légende :    VFR   VFR Marginal   IFR   IFR Intensif   IFR Très Intensif
Visi : 
Plafond : 
>= 8 km
>= 3000ft
5 à 8 km
1000 à 3000 ft
1500m à 5 km
500 à 1000 ft
800 à 1500m
200 à 500 ft
< 800m
< 200 ft
Symboles :   Orages  Brouillard  Fortes neiges  Fortes précipitations  Vent > 20 kt
SIGMETs :   Divers  Orages  Givrage  Turbulence  Onde Orograph.  Cendres Volcan.






- Altitude de l'aérodrome : 1187 ft


LIBV - Gioia del Colle Bari

DERNIER METAR :
  • 221355Z 32012KT 9999 BKN050 06/M06 Q1021 RMK BKN VIS MIN 9999 WIND THR32 34015KT WIND THR14 32011KT BLU

METARs EXPIRÉS :
  • 221255Z 33012G24KT 9999 SCT045 07/M06 Q1021 RMK BKN SCT070 VIS MIN 9999 WIND THR32 35015KT WIND THR14 34013KT BLU
  • 221155Z 34013KT 9999 FEW045 06/M06 Q1021 RMK FEW VIS MIN 9999 WIND THR32 35016KT WIND THR14 35015KT BLU
  • 221055Z 35015G25KT 9999 FEW050 06/M06 Q1021 RMK FEW VIS MIN 9999 WIND THR32 36017G27KT WIND THR14 35017KT BLU

TAF TAF LIBV
Valide du 22 à 12h jusqu'au 22 à 21h UTC


221100Z 2212/2221 30015G25KT FEW010 SCT040
BECMG 2213/2215 7000 BKN015
TEMPO 2216/2221 3000 SNRA BKN010



MET'MAP, la Météo Aéronautique d'un coup d'oeil ! - Copyright ORBIFLY Décembre 2007 - Disclaimer

ORBIFLY MET'MAP TEAM :

Programmation & Développement : Alexandra Zaïnal
Sur une idée originale de : Baudouin d'Aumeries
Assistance à la programmation : Marc-Olivier Méhu
Soutien technique & logistique : Manuel Goepfert

Contact : metmap@orbifly.com




SOURCES & CREDITS :

   NOAA